Time;durP1;ratioP1;P1;durP2;ratioP2;P2;SDS_P1;SDS_P2;PMS_P1;PMS_P2;Temp;Humidity;BMP_temperature;BMP_pressure;BME280_temperature;BME280_humidity;BME280_pressure;Samples;Min_cycle;Max_cycle;Signal;HPM_P1;HPM_P2
2022/12/21 00:03:18;;;;;;;14.23;7.10;;;;;;;-7.52;89.88;100359.28;10446757;28;20041;-76
2022/12/21 00:08:20;;;;;;;11.35;6.15;;;;;;;-7.50;90.32;100354.59;10444980;28;20033;-74
2022/12/21 00:13:23;;;;;;;16.70;7.95;;;;;;;-7.40;90.27;100344.59;10429981;28;20053;-76
2022/12/21 00:18:25;;;;;;;15.57;7.90;;;;;;;-7.41;90.60;100346.44;10429511;28;20037;-77
2022/12/21 00:23:28;;;;;;;14.10;7.63;;;;;;;-7.30;90.66;100343.38;10419950;28;20052;-74
2022/12/21 00:28:30;;;;;;;14.95;7.22;;;;;;;-7.22;91.04;100331.84;10415382;28;20052;-76
2022/12/21 00:33:33;;;;;;;15.45;7.50;;;;;;;-7.26;90.70;100325.22;10415084;28;20040;-75
2022/12/21 00:38:35;;;;;;;15.50;7.30;;;;;;;-7.25;90.94;100329.53;10427367;28;20642;-75
2022/12/21 00:43:39;;;;;;;14.85;7.15;;;;;;;-7.13;91.02;100322.81;10453905;28;20551;-74
2022/12/21 00:48:41;;;;;;;16.02;6.95;;;;;;;-7.05;91.12;100305.94;10442653;28;20041;-76
2022/12/21 00:53:45;;;;;;;14.32;7.45;;;;;;;-7.05;91.63;100293.44;10418960;28;20049;-75
2022/12/21 00:58:48;;;;;;;17.48;7.47;;;;;;;-7.07;91.78;100287.47;10442611;28;20488;-77
2022/12/21 01:03:50;;;;;;;15.27;8.13;;;;;;;-7.05;91.81;100281.94;10429379;28;20045;-75
2022/12/21 01:08:53;;;;;;;12.57;6.13;;;;;;;-7.08;92.31;100284.97;10433483;28;20052;-76
2022/12/21 01:13:56;;;;;;;14.30;7.18;;;;;;;-7.04;92.28;100275.59;10423465;28;20554;-78
2022/12/21 01:19:01;;;;;;;14.55;7.55;;;;;;;-7.00;92.99;100283.06;10409608;28;20417;-73
2022/12/21 01:24:04;;;;;;;13.55;7.00;;;;;;;-6.89;92.84;100267.69;10428406;28;20432;-74
2022/12/21 01:29:09;;;;;;;13.20;7.50;;;;;;;-6.79;93.30;100257.59;10413333;28;20500;-74
2022/12/21 01:34:11;;;;;;;13.95;7.05;;;;;;;-6.75;93.05;100264.25;10398436;28;20643;-74
2022/12/21 01:39:13;;;;;;;15.38;7.57;;;;;;;-6.76;93.91;100244.75;10404317;28;20558;-74
2022/12/21 01:44:53;;;;;;;12.27;7.15;;;;;;;-6.72;94.00;100234.53;10411425;28;20037;-74
2022/12/21 01:49:59;;;;;;;14.57;8.05;;;;;;;-6.70;93.98;100238.69;10441604;28;20041;-74
2022/12/21 01:55:05;;;;;;;13.13;7.47;;;;;;;-6.57;94.11;100250.59;10413699;28;20049;-74
2022/12/21 02:00:10;;;;;;;15.45;7.13;;;;;;;-6.45;94.43;100239.28;10423366;28;20049;-74
2022/12/21 02:05:40;;;;;;;14.13;6.80;;;;;;;-6.42;94.12;100243.44;10441041;28;20046;-73
2022/12/21 02:10:42;;;;;;;14.35;7.28;;;;;;;-6.39;94.39;100227.09;10380518;28;20427;-74
2022/12/21 02:15:59;;;;;;;12.60;7.00;;;;;;;-6.33;94.80;100223.69;10406404;28;20477;-73
2022/12/21 02:21:21;;;;;;;13.18;6.15;;;;;;;-6.32;94.41;100208.47;10410869;28;20427;-73
2022/12/21 02:26:40;;;;;;;15.20;7.53;;;;;;;-6.24;94.84;100229.78;10412829;28;20052;-74
2022/12/21 02:31:52;;;;;;;12.98;6.78;;;;;;;-6.17;95.00;100226.19;10400948;28;20519;-73
2022/12/21 02:37:22;;;;;;;12.02;7.00;;;;;;;-6.14;95.11;100208.97;10401952;28;20050;-74
2022/12/21 02:48:33;;;;;;;13.77;7.72;;;;;;;-6.01;94.77;100206.47;10406279;28;20405;-74
2022/12/21 02:53:38;;;;;;;13.65;6.75;;;;;;;-5.96;95.07;100206.75;10401195;28;20041;-74
2022/12/21 02:58:41;;;;;;;16.80;7.32;;;;;;;-5.84;95.19;100194.56;10438902;28;20351;-74
2022/12/21 03:03:48;;;;;;;10.50;6.45;;;;;;;-5.83;95.09;100192.72;10436364;28;20508;-74
2022/12/21 03:09:21;;;;;;;14.90;7.40;;;;;;;-5.88;95.24;100177.25;10452114;28;20046;-74
2022/12/21 03:14:57;;;;;;;12.43;7.15;;;;;;;-5.81;95.14;100194.19;10424638;28;20029;-74
2022/12/21 03:20:12;;;;;;;12.40;6.82;;;;;;;-5.77;95.46;100190.13;10435563;28;20053;-74
2022/12/21 03:25:38;;;;;;;12.32;6.85;;;;;;;-5.70;95.67;100182.19;10423368;28;20060;-74
2022/12/21 03:30:46;;;;;;;14.40;7.22;;;;;;;-5.55;95.62;100176.84;10436554;28;20140;-73
2022/12/21 03:35:51;;;;;;;13.60;5.93;;;;;;;-5.60;95.88;100168.53;10429231;28;20056;-73
2022/12/21 03:40:56;;;;;;;9.60;5.13;;;;;;;-5.63;95.39;100171.56;10432161;28;20045;-73
2022/12/21 03:46:01;;;;;;;14.35;6.43;;;;;;;-5.65;95.79;100168.28;10443098;28;20065;-73
2022/12/21 03:51:13;;;;;;;12.40;5.43;;;;;;;-5.63;96.00;100156.38;10442135;28;20049;-73
2022/12/21 03:56:29;;;;;;;12.88;5.28;;;;;;;-5.57;95.52;100141.41;10421435;28;20042;-74
2022/12/21 04:01:50;;;;;;;11.10;5.15;;;;;;;-5.49;95.89;100133.28;10420211;28;20052;-72
2022/12/21 04:06:53;;;;;;;10.63;5.28;;;;;;;-5.48;96.38;100130.44;10409623;28;20037;-73
2022/12/21 04:17:16;;;;;;;13.30;5.65;;;;;;;-5.43;96.05;100135.19;10423519;28;20050;-73
2022/12/21 04:33:00;;;;;;;12.57;6.07;;;;;;;-5.46;96.73;100082.13;10427417;28;20037;-73
2022/12/21 04:38:03;;;;;;;11.93;5.75;;;;;;;-5.48;97.25;100089.50;10444805;28;20053;-73
2022/12/21 04:43:05;;;;;;;12.88;5.65;;;;;;;-5.38;96.88;100089.16;10445350;28;20037;-73
2022/12/21 04:48:10;;;;;;;12.20;6.13;;;;;;;-5.34;96.67;100074.41;10452769;28;20401;-73
2022/12/21 04:53:13;;;;;;;9.15;5.22;;;;;;;-5.30;97.30;100084.53;10446059;28;20029;-73
2022/12/21 04:58:15;;;;;;;11.25;6.38;;;;;;;-5.17;97.29;100081.97;10437595;28;20048;-73
2022/12/21 05:03:19;;;;;;;7.30;4.47;;;;;;;-5.16;97.34;100083.63;10435307;28;20069;-72
2022/12/21 05:08:21;;;;;;;9.57;4.72;;;;;;;-5.13;97.24;100073.56;10440619;28;20041;-73
2022/12/21 05:13:23;;;;;;;11.10;4.85;;;;;;;-5.09;96.96;100066.81;10428824;28;20574;-72
2022/12/21 05:18:27;;;;;;;8.02;4.20;;;;;;;-5.07;97.42;100054.06;10442354;28;20033;-73
2022/12/21 05:23:29;;;;;;;5.88;4.03;;;;;;;-5.02;97.53;100048.97;10437187;28;20042;-73
2022/12/21 05:28:31;;;;;;;10.98;4.70;;;;;;;-5.00;97.11;100036.22;10418238;28;20596;-72
2022/12/21 05:33:33;;;;;;;7.80;3.85;;;;;;;-5.01;97.37;100027.38;10445942;28;20057;-72
2022/12/21 05:38:36;;;;;;;6.85;3.95;;;;;;;-4.98;97.40;100034.19;10445731;28;20060;-72
2022/12/21 05:43:39;;;;;;;8.63;4.55;;;;;;;-4.99;97.35;100025.31;10428790;28;20511;-73
2022/12/21 05:48:41;;;;;;;9.23;3.92;;;;;;;-4.99;97.24;100008.44;10445761;28;20053;-72
2022/12/21 05:53:45;;;;;;;9.73;4.63;;;;;;;-4.98;96.88;100013.59;10445338;28;20065;-73
2022/12/21 05:58:47;;;;;;;9.35;5.03;;;;;;;-4.88;97.10;100010.56;10441515;28;20033;-72
2022/12/21 06:03:49;;;;;;;10.63;5.60;;;;;;;-4.82;97.42;100001.78;10440986;28;20045;-71
2022/12/21 06:08:51;;;;;;;9.30;5.53;;;;;;;-4.82;97.50;99999.09;10443560;28;20038;-73
2022/12/21 06:13:54;;;;;;;10.85;4.80;;;;;;;-4.58;97.63;100003.13;10440164;28;20416;-72
2022/12/21 06:18:56;;;;;;;9.10;4.88;;;;;;;-4.48;97.47;100006.28;10439440;28;20508;-72
2022/12/21 06:23:58;;;;;;;12.80;6.20;;;;;;;-4.48;97.46;99997.41;10429556;28;20041;-73
2022/12/21 06:29:01;;;;;;;10.88;5.70;;;;;;;-4.45;97.44;99980.94;10432069;28;20033;-72
2022/12/21 06:34:03;;;;;;;10.50;4.65;;;;;;;-4.43;97.34;99971.69;10434195;28;20421;-72
2022/12/21 06:39:05;;;;;;;11.50;5.80;;;;;;;-4.40;97.65;99963.25;10440660;28;20045;-74
2022/12/21 06:44:09;;;;;;;9.27;4.72;;;;;;;-4.34;97.43;99961.59;10435263;28;20061;-72
2022/12/21 06:49:12;;;;;;;8.90;5.18;;;;;;;-4.33;96.97;99960.59;10438464;28;20419;-72
2022/12/21 06:54:14;;;;;;;9.95;4.53;;;;;;;-4.29;97.84;99964.53;10437847;28;20037;-73
2022/12/21 06:59:16;;;;;;;11.13;5.32;;;;;;;-4.26;97.57;99956.09;10435704;28;20120;-73
2022/12/21 07:04:19;;;;;;;7.03;3.92;;;;;;;-4.17;97.91;99943.31;10432491;28;20049;-73
2022/12/21 07:09:21;;;;;;;8.80;5.10;;;;;;;-4.09;98.09;99938.59;10434518;28;20041;-73
2022/12/21 07:14:24;;;;;;;5.70;2.75;;;;;;;-4.05;98.17;99929.13;10424006;28;20054;-71
2022/12/21 07:19:26;;;;;;;7.28;4.88;;;;;;;-3.98;98.37;99921.94;10430843;28;20056;-72
2022/12/21 07:24:29;;;;;;;8.23;5.03;;;;;;;-3.94;98.07;99925.03;10443174;28;20053;-72
2022/12/21 07:29:31;;;;;;;6.78;4.82;;;;;;;-3.89;98.47;99919.06;10442733;28;20045;-73
2022/12/21 07:34:34;;;;;;;9.88;5.00;;;;;;;-3.89;98.53;99917.19;10449166;28;20049;-72
2022/12/21 07:39:37;;;;;;;8.40;4.10;;;;;;;-3.80;99.36;99917.84;10426588;28;20041;-72
2022/12/21 07:44:39;;;;;;;11.57;5.57;;;;;;;-3.73;99.61;99924.00;10409344;28;20046;-72
2022/12/21 07:49:56;;;;;;;8.95;3.13;;;;;;;-3.62;99.98;99918.03;10408019;28;20050;-73
2022/12/21 07:54:59;;;;;;;11.60;4.78;;;;;;;-3.54;100.00;99914.31;10437161;28;20053;-74
2022/12/21 08:00:03;;;;;;;9.98;4.63;;;;;;;-3.41;100.00;99912.44;10449098;28;20052;-72
2022/12/21 08:05:14;;;;;;;8.90;4.35;;;;;;;-3.31;100.00;99892.41;10447216;28;20045;-72
2022/12/21 08:10:17;;;;;;;7.20;3.67;;;;;;;-3.30;100.00;99883.31;10448682;28;20042;-73
2022/12/21 08:15:21;;;;;;;5.75;3.90;;;;;;;-3.25;100.00;99891.59;10438235;28;20045;-72
2022/12/21 08:20:23;;;;;;;8.35;4.57;;;;;;;-3.19;100.00;99888.06;10413231;28;20052;-72
2022/12/21 08:25:26;;;;;;;8.63;3.08;;;;;;;-3.27;100.00;99881.06;10448818;28;20037;-73
2022/12/21 08:30:28;;;;;;;7.18;3.65;;;;;;;-3.22;100.00;99870.53;10443284;28;20045;-71
2022/12/21 08:35:30;;;;;;;10.70;4.18;;;;;;;-3.12;100.00;99865.56;10422874;28;20056;-72
2022/12/21 08:40:32;;;;;;;6.40;3.03;;;;;;;-3.03;100.00;99858.09;10431322;28;20038;-73
2022/12/21 08:45:35;;;;;;;9.20;4.50;;;;;;;-3.03;100.00;99860.78;10441863;28;20034;-73
2022/12/21 08:50:37;;;;;;;10.90;4.72;;;;;;;-3.00;100.00;99844.25;10429954;28;20405;-73
2022/12/21 08:55:40;;;;;;;11.23;5.32;;;;;;;-2.95;100.00;99855.19;10437302;28;20054;-72
2022/12/21 09:00:42;;;;;;;9.07;4.70;;;;;;;-2.88;100.00;99849.78;10426167;28;20045;-74
2022/12/21 09:05:45;;;;;;;9.20;5.00;;;;;;;-2.75;100.00;99834.44;10446366;28;20048;-72
2022/12/21 09:10:48;;;;;;;11.02;5.07;;;;;;;-2.68;100.00;99826.34;10447245;28;20236;-72
2022/12/21 09:15:50;;;;;;;9.10;4.75;;;;;;;-2.56;100.00;99810.38;10431220;28;20053;-72
2022/12/21 09:21:00;;;;;;;10.90;4.43;;;;;;;-2.54;100.00;99803.75;10405476;28;20049;-73
2022/12/21 09:26:07;;;;;;;6.20;3.63;;;;;;;-2.49;100.00;99790.47;10407853;28;20041;-72
2022/12/21 09:31:15;;;;;;;7.32;4.10;;;;;;;-2.42;100.00;99779.69;10444024;28;20045;-73
2022/12/21 09:36:19;;;;;;;8.60;4.13;;;;;;;-2.32;100.00;99774.66;10440997;28;20052;-73
2022/12/21 09:41:33;;;;;;;10.25;4.30;;;;;;;-2.23;100.00;99767.97;10441418;28;20435;-73
2022/12/21 09:46:38;;;;;;;7.85;3.22;;;;;;;-2.12;100.00;99764.56;10444694;28;20034;-73
2022/12/21 09:51:50;;;;;;;5.55;3.13;;;;;;;-2.04;100.00;99766.16;10446192;28;20041;-73
2022/12/21 09:56:54;;;;;;;5.07;3.25;;;;;;;-1.96;100.00;99754.28;10443903;28;20041;-73
2022/12/21 10:02:33;;;;;;;5.43;3.60;;;;;;;-1.90;100.00;99748.03;10444852;28;20151;-73
2022/12/21 10:08:00;;;;;;;2.92;2.28;;;;;;;-1.85;100.00;99746.31;10443615;28;20515;-72
2022/12/21 10:13:02;;;;;;;2.50;2.22;;;;;;;-1.82;100.00;99756.63;10444332;28;20088;-73
2022/12/21 10:18:49;;;;;;;6.20;3.00;;;;;;;-1.79;100.00;99752.66;10444755;28;20041;-73
2022/12/21 10:23:52;;;;;;;4.93;2.47;;;;;;;-1.78;100.00;99732.81;10440704;28;20060;-73
2022/12/21 10:29:07;;;;;;;3.83;2.88;;;;;;;-1.71;100.00;99733.56;10411154;28;20381;-73
2022/12/21 10:34:18;;;;;;;2.50;2.15;;;;;;;-1.67;100.00;99726.69;10444167;28;20033;-73
2022/12/21 10:39:20;;;;;;;3.92;2.78;;;;;;;-1.64;100.00;99720.88;10426676;28;20519;-73
2022/12/21 10:44:23;;;;;;;4.03;2.25;;;;;;;-1.59;100.00;99721.00;10438582;28;20049;-72
2022/12/21 10:49:35;;;;;;;4.22;2.90;;;;;;;-1.52;100.00;99705.63;10442526;28;20054;-71
2022/12/21 10:54:48;;;;;;;6.97;2.90;;;;;;;-1.43;100.00;99699.91;10425963;28;20041;-73
2022/12/21 10:59:50;;;;;;;3.95;2.40;;;;;;;-1.35;100.00;99695.06;10443976;28;20041;-73
2022/12/21 11:04:52;;;;;;;3.45;2.33;;;;;;;-1.30;100.00;99695.19;10446646;28;20049;-73
2022/12/21 11:09:57;;;;;;;3.53;2.50;;;;;;;-1.25;100.00;99684.56;10452071;28;20053;-72
2022/12/21 11:15:10;;;;;;;6.93;2.60;;;;;;;-1.19;100.00;99674.78;10451551;28;20412;-73
2022/12/21 11:20:20;;;;;;;3.83;2.45;;;;;;;-1.15;100.00;99667.88;10451000;28;20049;-72
2022/12/21 11:25:27;;;;;;;5.55;2.55;;;;;;;-1.12;100.00;99656.66;10431322;28;20044;-73
2022/12/21 11:30:33;;;;;;;4.93;2.92;;;;;;;-1.10;100.00;99643.78;10469954;28;20045;-73
2022/12/21 11:35:35;;;;;;;4.10;2.50;;;;;;;-1.06;100.00;99644.97;10456575;28;20053;-73
2022/12/21 11:40:37;;;;;;;5.40;3.03;;;;;;;-1.03;100.00;99633.75;10445835;28;20045;-74
2022/12/21 11:46:07;;;;;;;5.03;3.10;;;;;;;-1.01;100.00;99639.72;10432647;28;20520;-74
2022/12/21 11:51:18;;;;;;;7.35;3.72;;;;;;;-0.99;100.00;99634.09;10442148;28;20048;-74
2022/12/21 11:56:39;;;;;;;3.65;2.72;;;;;;;-0.97;100.00;99624.75;10439023;28;20037;-73
2022/12/21 12:02:13;;;;;;;5.75;2.60;;;;;;;-0.93;100.00;99634.00;10432326;28;20049;-73
2022/12/21 12:07:43;;;;;;;5.20;2.97;;;;;;;-0.92;100.00;99629.44;10429416;28;20339;-73
2022/12/21 12:13:06;;;;;;;6.78;3.55;;;;;;;-0.86;100.00;99627.72;10471017;28;20450;-74
2022/12/21 12:18:14;;;;;;;4.75;3.03;;;;;;;-0.81;100.00;99609.78;10460038;28;20045;-74
2022/12/21 12:23:23;;;;;;;3.25;2.97;;;;;;;-0.78;100.00;99601.25;10432260;28;20121;-74
2022/12/21 12:28:25;;;;;;;3.38;3.03;;;;;;;-0.75;100.00;99603.47;10432130;28;20067;-72
2022/12/21 12:33:34;;;;;;;7.68;3.42;;;;;;;-0.74;100.00;99604.28;10449738;28;20514;-73
2022/12/21 12:38:57;;;;;;;10.73;3.08;;;;;;;-0.72;100.00;99604.88;10442097;28;20060;-74
2022/12/21 12:44:32;;;;;;;5.80;3.20;;;;;;;-0.68;100.00;99595.28;10443829;28;20459;-74
2022/12/21 12:49:56;;;;;;;8.88;3.70;;;;;;;-0.68;100.00;99593.41;10448337;28;20427;-74
2022/12/21 12:55:07;;;;;;;5.82;2.63;;;;;;;-0.67;100.00;99596.94;10424720;28;20038;-74
2022/12/21 13:00:12;;;;;;;5.20;3.42;;;;;;;-0.66;100.00;99594.00;10423871;28;20057;-73
2022/12/21 13:05:29;;;;;;;6.22;3.08;;;;;;;-0.60;100.00;99589.53;10417405;28;20038;-74
2022/12/21 13:10:37;;;;;;;3.42;3.00;;;;;;;-0.57;100.00;99583.69;10443448;28;20419;-73
2022/12/21 13:15:50;;;;;;;;;;;;;;;-0.56;100.00;99584.50;10447074;28;20060;-72
2022/12/21 13:20:55;;;;;;;4.57;2.80;;;;;;;-0.52;100.00;99580.28;10450969;28;19928;-73
2022/12/21 13:26:08;;;;;;;6.57;3.55;;;;;;;-0.50;100.00;99570.94;10424017;28;20187;-73
2022/12/21 13:31:11;;;;;;;7.70;3.67;;;;;;;-0.48;100.00;99559.91;10446407;28;20045;-73
2022/12/21 13:36:14;;;;;;;3.42;2.45;;;;;;;-0.47;100.00;99556.16;10446361;28;20053;-73
2022/12/21 13:41:20;;;;;;;8.57;3.97;;;;;;;-0.45;100.00;99557.56;10445200;28;20389;-73
2022/12/21 13:46:23;;;;;;;4.20;2.97;;;;;;;-0.41;100.00;99553.31;10445310;28;20057;-73
2022/12/21 13:51:49;;;;;;;4.70;2.55;;;;;;;-0.38;100.00;99546.63;10445519;28;20041;-73
2022/12/21 13:56:54;;;;;;;4.25;2.28;;;;;;;-0.38;100.00;99554.72;10435747;28;20041;-74
2022/12/21 14:02:17;;;;;;;4.65;2.67;;;;;;;-0.36;100.00;99542.66;10433652;28;20057;-73
2022/12/21 14:07:26;;;;;;;4.78;2.80;;;;;;;-0.32;100.00;99540.31;10453636;28;20049;-73
2022/12/21 14:12:47;;;;;;;5.03;2.50;;;;;;;-0.28;100.00;99532.56;10434214;28;20037;-72
2022/12/21 14:17:49;;;;;;;3.08;2.67;;;;;;;-0.31;100.00;99532.00;10428686;28;20048;-74
2022/12/21 14:22:53;;;;;;;3.40;2.38;;;;;;;-0.27;100.00;99531.50;10420323;28;20057;-72
2022/12/21 14:28:24;;;;;;;1.52;1.33;;;;;;;-0.25;100.00;99529.41;10406974;28;20052;-74
2022/12/21 14:33:40;;;;;;;1.77;1.60;;;;;;;-0.26;100.00;99525.06;10409426;28;20042;-72
2022/12/21 14:38:44;;;;;;;2.15;1.55;;;;;;;-0.23;100.00;99519.19;10404108;28;20050;-72
2022/12/21 14:44:15;;;;;;;4.40;1.92;;;;;;;-0.23;100.00;99503.03;10420820;28;20049;-72
2022/12/21 14:49:27;;;;;;;4.97;2.40;;;;;;;-0.19;100.00;99504.19;10432901;28;20068;-72
2022/12/21 14:54:34;;;;;;;2.58;2.05;;;;;;;-0.19;100.00;99501.47;10404480;28;20049;-73
2022/12/21 14:59:41;;;;;;;3.38;2.22;;;;;;;-0.18;100.00;99495.84;10425659;28;20078;-72
2022/12/21 15:04:48;;;;;;;2.33;2.00;;;;;;;-0.15;100.00;99490.00;10458308;28;20048;-73
2022/12/21 15:09:58;;;;;;;1.77;1.67;;;;;;;-0.13;100.00;99482.50;10413400;28;20045;-72
2022/12/21 15:15:01;;;;;;;4.25;2.13;;;;;;;-0.09;100.00;99475.56;10430844;28;20045;-73
2022/12/21 15:20:03;;;;;;;7.03;2.95;;;;;;;-0.05;100.00;99465.09;10425957;28;20076;-74
2022/12/21 15:25:18;;;;;;;4.10;2.88;;;;;;;-0.04;100.00;99447.84;10424238;28;20073;-73
2022/12/21 15:30:22;;;;;;;2.65;1.80;;;;;;;-0.02;100.00;99432.25;10427855;28;20054;-72
2022/12/21 15:35:38;;;;;;;1.58;1.48;;;;;;;0.02;100.00;99441.53;10425710;28;20418;-72
2022/12/21 15:40:43;;;;;;;4.45;1.90;;;;;;;0.07;100.00;99444.28;10440608;28;20042;-71
2022/12/21 15:45:54;;;;;;;4.35;2.40;;;;;;;0.07;100.00;99457.78;10436203;28;20056;-76
2022/12/21 15:50:58;;;;;;;7.50;2.80;;;;;;;0.05;100.00;99446.41;10427796;28;20057;-74
2022/12/21 15:56:01;;;;;;;3.80;2.00;;;;;;;0.16;100.00;99444.72;10422683;28;20049;-75
2022/12/21 16:01:11;;;;;;;6.63;3.20;;;;;;;0.23;100.00;99435.41;10443002;28;20041;-73
2022/12/21 16:06:19;;;;;;;2.72;2.08;;;;;;;0.30;100.00;99443.34;10443745;28;20045;-72
2022/12/21 16:11:29;;;;;;;3.17;1.98;;;;;;;0.26;100.00;99456.50;10432114;28;20056;-74
2022/12/21 16:16:33;;;;;;;3.38;1.88;;;;;;;0.25;100.00;99435.19;10431999;28;20567;-73
2022/12/21 16:21:36;;;;;;;2.70;2.00;;;;;;;0.32;100.00;99432.31;10427565;28;20049;-73
2022/12/21 16:26:38;;;;;;;4.60;2.22;;;;;;;0.31;100.00;99418.00;10434873;28;20085;-77
2022/12/21 16:31:43;;;;;;;3.13;1.60;;;;;;;0.27;100.00;99430.34;10435161;28;20046;-76
2022/12/21 16:36:46;;;;;;;3.90;1.58;;;;;;;0.23;100.00;99416.53;10436812;28;20046;-77
2022/12/21 16:41:49;;;;;;;2.35;1.33;;;;;;;0.21;100.00;99415.97;10436370;28;20447;-77
2022/12/21 16:46:54;;;;;;;2.85;1.50;;;;;;;0.20;100.00;99408.94;10430450;28;20566;-75
2022/12/21 16:51:58;;;;;;;1.08;1.02;;;;;;;0.19;100.00;99406.47;10430775;28;20045;-73
2022/12/21 16:57:02;;;;;;;2.03;1.30;;;;;;;0.22;100.00;99398.72;10425048;28;20037;-73
2022/12/21 17:02:06;;;;;;;6.28;1.80;;;;;;;0.23;100.00;99384.16;10446099;28;20416;-73
2022/12/21 17:07:14;;;;;;;2.95;1.98;;;;;;;0.23;100.00;99365.28;10426968;28;20045;-73
2022/12/21 17:12:19;;;;;;;2.10;1.40;;;;;;;0.23;100.00;99384.16;10447047;28;20041;-72
2022/12/21 17:17:22;;;;;;;2.47;2.00;;;;;;;0.24;100.00;99369.63;10446411;28;20041;-72
2022/12/21 17:22:27;;;;;;;3.15;2.05;;;;;;;0.26;100.00;99366.66;10429213;28;20041;-75
2022/12/21 17:27:49;;;;;;;2.50;1.95;;;;;;;0.26;100.00;99369.38;10402121;28;20037;-74
2022/12/21 17:32:53;;;;;;;2.17;1.83;;;;;;;0.27;100.00;99366.41;10406677;28;20058;-74
2022/12/21 17:37:56;;;;;;;2.95;2.05;;;;;;;0.28;100.00;99359.97;10413829;28;20046;-73
2022/12/21 17:42:58;;;;;;;2.65;2.20;;;;;;;0.30;100.00;99365.09;10420083;28;20045;-74
2022/12/21 17:48:01;;;;;;;2.00;1.80;;;;;;;0.31;100.00;99358.66;10410780;28;20410;-74
2022/12/21 17:53:09;;;;;;;2.90;1.92;;;;;;;0.35;100.00;99357.13;10407911;28;20037;-74
2022/12/21 17:58:12;;;;;;;2.70;1.80;;;;;;;0.36;100.00;99352.53;10422275;28;20038;-74
2022/12/21 18:03:21;;;;;;;3.22;1.90;;;;;;;0.41;100.00;99358.00;10420586;28;20053;-73
2022/12/21 18:08:24;;;;;;;3.78;1.98;;;;;;;0.44;100.00;99350.22;10434297;28;20053;-74
2022/12/21 18:13:26;;;;;;;2.75;1.90;;;;;;;0.44;100.00;99339.44;10424218;28;20054;-74
2022/12/21 18:18:32;;;;;;;3.65;2.00;;;;;;;0.45;100.00;99342.94;10443055;28;20049;-74
2022/12/21 18:23:39;;;;;;;2.35;1.60;;;;;;;0.45;100.00;99337.56;10444047;28;20504;-74
2022/12/21 18:28:41;;;;;;;2.33;1.95;;;;;;;0.47;100.00;99335.41;10433205;28;20037;-73
2022/12/21 18:33:45;;;;;;;2.33;1.90;;;;;;;0.48;100.00;99320.84;10424550;28;20038;-77
2022/12/21 18:38:48;;;;;;;2.92;1.80;;;;;;;0.48;100.00;99324.38;10419439;28;20045;-73
2022/12/21 18:43:50;;;;;;;3.63;2.47;;;;;;;0.53;100.00;99323.66;10426120;28;20056;-73
2022/12/21 18:48:55;;;;;;;2.00;1.65;;;;;;;0.51;100.00;99320.34;10433022;28;20049;-79
2022/12/21 18:53:58;;;;;;;1.85;1.33;;;;;;;0.53;100.00;99315.56;10429152;28;20495;-80
2022/12/21 18:59:00;;;;;;;2.08;1.65;;;;;;;0.57;100.00;99316.69;10427379;28;20449;-80
2022/12/21 19:04:25;;;;;;;2.10;1.73;;;;;;;0.62;100.00;99311.34;10430261;28;20053;-79
2022/12/21 19:09:28;;;;;;;2.33;1.70;;;;;;;0.66;100.00;99300.88;10396498;28;20108;-77
2022/12/21 19:14:31;;;;;;;2.13;1.90;;;;;;;0.68;100.00;99304.13;10432191;28;20049;-78
2022/12/21 19:19:39;;;;;;;1.60;1.50;;;;;;;0.69;100.00;99300.38;10423747;28;20057;-77
2022/12/21 19:24:41;;;;;;;3.40;2.33;;;;;;;0.72;100.00;99306.09;10417540;28;20535;-78
2022/12/21 19:29:43;;;;;;;3.30;1.95;;;;;;;0.76;100.00;99304.53;10431985;28;20038;-76
2022/12/21 19:34:46;;;;;;;3.88;2.10;;;;;;;0.80;100.00;99297.56;10419581;28;20052;-77
2022/12/21 19:39:51;;;;;;;2.67;1.83;;;;;;;0.83;100.00;99299.75;10433540;28;20457;-77
2022/12/21 19:45:00;;;;;;;2.58;2.05;;;;;;;0.84;100.00;99304.09;10435043;28;20041;-76
2022/12/21 19:50:13;;;;;;;2.92;2.60;;;;;;;0.86;100.00;99296.53;10433689;28;20069;-76
2022/12/21 19:55:21;;;;;;;3.17;2.00;;;;;;;0.88;100.00;99282.81;10416534;28;20045;-76
2022/12/21 20:00:26;;;;;;;2.63;1.90;;;;;;;0.91;100.00;99295.81;10429116;28;20045;-76
2022/12/21 20:05:29;;;;;;;3.13;2.55;;;;;;;0.92;100.00;99296.63;10436671;28;20497;-76
2022/12/21 20:10:33;;;;;;;3.55;2.60;;;;;;;0.92;100.00;99289.34;10405962;28;20033;-77
2022/12/21 20:15:36;;;;;;;3.30;2.53;;;;;;;0.90;100.00;99281.50;10434235;28;20046;-77
2022/12/21 20:20:38;;;;;;;5.13;2.58;;;;;;;0.95;100.00;99279.91;10434794;28;20068;-77
2022/12/21 20:25:42;;;;;;;4.97;2.55;;;;;;;0.98;100.00;99276.72;10432407;28;20050;-76
2022/12/21 20:30:49;;;;;;;4.53;2.85;;;;;;;0.97;100.00;99278.59;10405307;28;20183;-77
2022/12/21 20:35:57;;;;;;;3.63;2.35;;;;;;;0.99;100.00;99272.94;10435011;28;20042;-73
2022/12/21 20:41:02;;;;;;;4.28;2.53;;;;;;;1.03;100.00;99269.47;10434073;28;20504;-77
2022/12/21 20:46:06;;;;;;;2.60;2.17;;;;;;;1.06;100.00;99263.59;10407071;28;20057;-76
2022/12/21 20:51:11;;;;;;;2.78;2.15;;;;;;;1.10;100.00;99261.19;10433432;28;20033;-75
2022/12/21 20:56:24;;;;;;;1.98;1.77;;;;;;;1.13;100.00;99258.81;10436913;28;20034;-75
2022/12/21 21:01:56;;;;;;;2.45;2.08;;;;;;;1.13;100.00;99263.38;10434998;28;20572;-77
2022/12/21 21:07:16;;;;;;;2.83;2.17;;;;;;;1.17;100.00;99272.63;10424000;28;20030;-78
2022/12/21 21:12:20;;;;;;;2.85;1.83;;;;;;;1.17;100.00;99265.31;10412958;28;20041;-78
2022/12/21 21:17:26;;;;;;;3.42;1.90;;;;;;;1.17;100.00;99270.72;10421623;28;20512;-77
2022/12/21 21:27:55;;;;;;;2.10;1.77;;;;;;;1.20;100.00;99261.28;10424022;28;20042;-78
2022/12/21 21:32:58;;;;;;;2.10;1.88;;;;;;;1.22;100.00;99261.06;10435060;28;20038;-77
2022/12/21 21:43:32;;;;;;;3.47;1.88;;;;;;;1.21;100.00;99262.91;10410806;28;20041;-77
2022/12/21 21:48:34;;;;;;;2.45;1.85;;;;;;;1.22;100.00;99264.59;10397323;28;20046;-78
2022/12/21 21:53:40;;;;;;;4.45;2.55;;;;;;;1.24;100.00;99275.13;10416980;28;20052;-78
2022/12/21 21:58:43;;;;;;;2.33;2.05;;;;;;;1.22;100.00;99272.69;10419681;28;20063;-79
2022/12/21 22:03:45;;;;;;;3.42;2.22;;;;;;;1.21;100.00;99271.03;10415146;28;20091;-79
2022/12/21 22:08:49;;;;;;;3.35;2.03;;;;;;;1.21;100.00;99271.03;10418774;28;20042;-77
2022/12/21 22:13:52;;;;;;;4.43;2.20;;;;;;;1.23;100.00;99274.31;10415457;28;20044;-78
2022/12/21 22:18:54;;;;;;;2.40;2.00;;;;;;;1.24;100.00;99275.94;10416405;28;20042;-78
2022/12/21 22:45:50;;;;;;;2.30;1.87;;;;;;;1.33;100.00;99266.31;10416748;28;20503;-79
2022/12/21 22:50:59;;;;;;;3.20;1.75;;;;;;;1.33;100.00;99271.72;10430668;28;20030;-77
2022/12/21 22:56:01;;;;;;;4.28;1.40;;;;;;;1.33;100.00;99273.59;10426764;28;20393;-74
2022/12/21 23:01:10;;;;;;;1.50;1.35;;;;;;;1.34;100.00;99270.63;10417973;28;20052;-74
2022/12/21 23:06:14;;;;;;;1.27;1.17;;;;;;;1.34;100.00;99276.03;10412090;28;20045;-73
2022/12/21 23:11:19;;;;;;;2.25;1.50;;;;;;;1.34;100.00;99270.63;10412739;28;20041;-78
2022/12/21 23:16:22;;;;;;;2.28;1.40;;;;;;;1.36;100.00;99263.09;10415146;28;20432;-77
2022/12/21 23:43:11;;;;;;;2.90;1.23;;;;;;;1.39;100.00;99257.19;10412005;28;20509;-76
